sensor_id;sensor_type;location;lat;lon;timestamp;pressure;altitude;pressure_sealevel;temperature;humidity
49311;BME280;35177;45.900;5.946;2022-09-09T00:00:18;97481.13;;;15.78;100.00
49311;BME280;35177;45.900;5.946;2022-09-09T00:02:53;97484.44;;;15.42;100.00
49311;BME280;35177;45.900;5.946;2022-09-09T00:05:41;97489.22;;;15.42;100.00
49311;BME280;35177;45.900;5.946;2022-09-09T00:08:25;97482.44;;;15.55;100.00
49311;BME280;35177;45.900;5.946;2022-09-09T00:10:56;97480.91;;;15.70;100.00
49311;BME280;35177;45.900;5.946;2022-09-09T00:16:32;97489.94;;;15.39;100.00
49311;BME280;35177;45.900;5.946;2022-09-09T00:19:06;97492.59;;;15.23;100.00
49311;BME280;35177;45.900;5.946;2022-09-09T00:21:37;97491.53;;;15.15;100.00
49311;BME280;35177;45.900;5.946;2022-09-09T00:26:51;97475.59;;;15.28;100.00
49311;BME280;35177;45.900;5.946;2022-09-09T00:29:31;97468.47;;;15.31;100.00
49311;BME280;35177;45.900;5.946;2022-09-09T00:32:08;97461.34;;;15.46;100.00
49311;BME280;35177;45.900;5.946;2022-09-09T00:34:39;97469.38;;;15.47;100.00
49311;BME280;35177;45.900;5.946;2022-09-09T00:37:08;97468.22;;;15.48;100.00
49311;BME280;35177;45.900;5.946;2022-09-09T00:39:38;97469.72;;;15.58;100.00
49311;BME280;35177;45.900;5.946;2022-09-09T00:42:24;97467.41;;;15.60;100.00
49311;BME280;35177;45.900;5.946;2022-09-09T00:44:58;97465.75;;;15.71;100.00
49311;BME280;35177;45.900;5.946;2022-09-09T00:47:53;97474.06;;;15.55;100.00
49311;BME280;35177;45.900;5.946;2022-09-09T00:53:14;97472.75;;;15.65;100.00
49311;BME280;35177;45.900;5.946;2022-09-09T00:58:09;97464.13;;;15.58;100.00
49311;BME280;35177;45.900;5.946;2022-09-09T01:00:47;97469.06;;;15.49;100.00
49311;BME280;35177;45.900;5.946;2022-09-09T01:11:52;97457.75;;;15.45;100.00
49311;BME280;35177;45.900;5.946;2022-09-09T01:14:32;97461.25;;;15.30;100.00
49311;BME280;35177;45.900;5.946;2022-09-09T01:17:21;97462.75;;;15.39;100.00
49311;BME280;35177;45.900;5.946;2022-09-09T01:25:22;97459.16;;;15.51;100.00
49311;BME280;35177;45.900;5.946;2022-09-09T01:27:53;97458.31;;;15.51;100.00
49311;BME280;35177;45.900;5.946;2022-09-09T01:30:21;97456.94;;;15.45;100.00
49311;BME280;35177;45.900;5.946;2022-09-09T01:32:49;97451.94;;;15.38;100.00
49311;BME280;35177;45.900;5.946;2022-09-09T01:36:12;97451.03;;;15.34;100.00
49311;BME280;35177;45.900;5.946;2022-09-09T01:38:31;97449.16;;;15.25;100.00
49311;BME280;35177;45.900;5.946;2022-09-09T01:40:58;97441.34;;;15.06;100.00
49311;BME280;35177;45.900;5.946;2022-09-09T01:43:24;97446.81;;;15.03;100.00
49311;BME280;35177;45.900;5.946;2022-09-09T01:45:53;97448.81;;;15.02;100.00
49311;BME280;35177;45.900;5.946;2022-09-09T01:48:22;97442.97;;;14.95;100.00
49311;BME280;35177;45.900;5.946;2022-09-09T01:50:48;97441.34;;;14.94;100.00
49311;BME280;35177;45.900;5.946;2022-09-09T01:53:16;97444.59;;;14.96;100.00
49311;BME280;35177;45.900;5.946;2022-09-09T02:03:56;97447.50;;;14.87;100.00
49311;BME280;35177;45.900;5.946;2022-09-09T02:06:36;97439.25;;;14.91;100.00
49311;BME280;35177;45.900;5.946;2022-09-09T02:09:07;97441.50;;;14.64;100.00
49311;BME280;35177;45.900;5.946;2022-09-09T02:11:36;97449.50;;;14.53;100.00
49311;BME280;35177;45.900;5.946;2022-09-09T02:14:08;97447.44;;;14.62;100.00
49311;BME280;35177;45.900;5.946;2022-09-09T02:16:42;97438.03;;;14.67;100.00
49311;BME280;35177;45.900;5.946;2022-09-09T02:19:20;97441.50;;;14.64;100.00
49311;BME280;35177;45.900;5.946;2022-09-09T02:21:52;97442.41;;;14.56;100.00
49311;BME280;35177;45.900;5.946;2022-09-09T02:24:18;97441.56;;;14.30;100.00
49311;BME280;35177;45.900;5.946;2022-09-09T02:26:46;97443.41;;;14.39;100.00
49311;BME280;35177;45.900;5.946;2022-09-09T02:29:20;97445.91;;;14.19;100.00
49311;BME280;35177;45.900;5.946;2022-09-09T02:31:49;97450.16;;;14.04;100.00
49311;BME280;35177;45.900;5.946;2022-09-09T02:34:17;97458.13;;;13.93;100.00
49311;BME280;35177;45.900;5.946;2022-09-09T02:36:45;97450.97;;;13.84;100.00
49311;BME280;35177;45.900;5.946;2022-09-09T02:39:12;97450.84;;;13.80;100.00
49311;BME280;35177;45.900;5.946;2022-09-09T02:41:41;97451.94;;;13.88;100.00
49311;BME280;35177;45.900;5.946;2022-09-09T02:44:15;97455.25;;;14.02;100.00
49311;BME280;35177;45.900;5.946;2022-09-09T02:52:35;97445.69;;;14.24;100.00
49311;BME280;35177;45.900;5.946;2022-09-09T02:55:14;97454.81;;;14.34;100.00
49311;BME280;35177;45.900;5.946;2022-09-09T02:57:41;97458.66;;;14.41;100.00
49311;BME280;35177;45.900;5.946;2022-09-09T03:00:09;97456.22;;;14.40;100.00
49311;BME280;35177;45.900;5.946;2022-09-09T03:02:35;97456.69;;;14.42;100.00
49311;BME280;35177;45.900;5.946;2022-09-09T03:05:00;97457.19;;;14.23;100.00
49311;BME280;35177;45.900;5.946;2022-09-09T03:07:26;97451.03;;;14.17;100.00
49311;BME280;35177;45.900;5.946;2022-09-09T03:09:52;97456.06;;;14.24;100.00
49311;BME280;35177;45.900;5.946;2022-09-09T03:12:19;97452.78;;;14.22;100.00
49311;BME280;35177;45.900;5.946;2022-09-09T03:14:45;97455.06;;;14.07;100.00
49311;BME280;35177;45.900;5.946;2022-09-09T03:17:12;97464.47;;;13.81;100.00
49311;BME280;35177;45.900;5.946;2022-09-09T03:19:37;97456.16;;;13.94;100.00
49311;BME280;35177;45.900;5.946;2022-09-09T03:22:03;97445.94;;;13.98;100.00
49311;BME280;35177;45.900;5.946;2022-09-09T03:24:29;97457.09;;;13.98;100.00
49311;BME280;35177;45.900;5.946;2022-09-09T03:26:55;97451.00;;;14.05;100.00
49311;BME280;35177;45.900;5.946;2022-09-09T03:29:21;97455.34;;;14.14;100.00
49311;BME280;35177;45.900;5.946;2022-09-09T03:31:46;97451.44;;;14.07;100.00
49311;BME280;35177;45.900;5.946;2022-09-09T03:34:12;97453.97;;;13.78;100.00
49311;BME280;35177;45.900;5.946;2022-09-09T03:36:39;97453.06;;;13.44;100.00
49311;BME280;35177;45.900;5.946;2022-09-09T03:39:06;97445.19;;;13.46;100.00
49311;BME280;35177;45.900;5.946;2022-09-09T03:41:31;97446.41;;;13.58;100.00
49311;BME280;35177;45.900;5.946;2022-09-09T03:43:57;97452.28;;;13.65;100.00
49311;BME280;35177;45.900;5.946;2022-09-09T03:46:24;97451.78;;;13.42;100.00
49311;BME280;35177;45.900;5.946;2022-09-09T03:48:50;97454.94;;;13.31;100.00
49311;BME280;35177;45.900;5.946;2022-09-09T03:51:17;97447.69;;;13.39;100.00
49311;BME280;35177;45.900;5.946;2022-09-09T03:53:43;97450.84;;;13.38;100.00
49311;BME280;35177;45.900;5.946;2022-09-09T03:56:08;97463.09;;;13.37;100.00
49311;BME280;35177;45.900;5.946;2022-09-09T03:58:34;97449.16;;;13.37;100.00
49311;BME280;35177;45.900;5.946;2022-09-09T04:01:03;97448.13;;;13.50;100.00
49311;BME280;35177;45.900;5.946;2022-09-09T04:03:29;97460.22;;;13.54;100.00
49311;BME280;35177;45.900;5.946;2022-09-09T04:05:57;97455.41;;;13.63;100.00
49311;BME280;35177;45.900;5.946;2022-09-09T04:08:24;97453.56;;;13.68;100.00
49311;BME280;35177;45.900;5.946;2022-09-09T04:10:53;97451.75;;;13.72;100.00
49311;BME280;35177;45.900;5.946;2022-09-09T04:13:24;97449.75;;;13.93;100.00
49311;BME280;35177;45.900;5.946;2022-09-09T04:15:57;97450.03;;;14.01;100.00
49311;BME280;35177;45.900;5.946;2022-09-09T04:18:24;97442.00;;;13.99;100.00
49311;BME280;35177;45.900;5.946;2022-09-09T04:20:52;97445.94;;;13.98;100.00
49311;BME280;35177;45.900;5.946;2022-09-09T04:23:18;97443.22;;;13.89;100.00
49311;BME280;35177;45.900;5.946;2022-09-09T04:25:46;97445.81;;;13.94;100.00
49311;BME280;35177;45.900;5.946;2022-09-09T04:28:13;97433.00;;;13.93;100.00
49311;BME280;35177;45.900;5.946;2022-09-09T04:30:39;97444.72;;;13.87;100.00
49311;BME280;35177;45.900;5.946;2022-09-09T04:33:06;97445.09;;;13.85;100.00
49311;BME280;35177;45.900;5.946;2022-09-09T04:35:32;97450.03;;;13.79;100.00
49311;BME280;35177;45.900;5.946;2022-09-09T04:37:58;97449.25;;;13.79;100.00
49311;BME280;35177;45.900;5.946;2022-09-09T04:40:24;97444.88;;;13.69;100.00
49311;BME280;35177;45.900;5.946;2022-09-09T04:42:50;97449.41;;;13.74;100.00
49311;BME280;35177;45.900;5.946;2022-09-09T04:45:16;97444.91;;;13.60;100.00
49311;BME280;35177;45.900;5.946;2022-09-09T04:47:41;97450.31;;;13.65;100.00
49311;BME280;35177;45.900;5.946;2022-09-09T04:50:08;97446.75;;;13.77;100.00
49311;BME280;35177;45.900;5.946;2022-09-09T04:52:35;97448.63;;;13.73;100.00
49311;BME280;35177;45.900;5.946;2022-09-09T04:55:01;97450.38;;;13.78;100.00
49311;BME280;35177;45.900;5.946;2022-09-09T04:57:27;97453.50;;;13.76;100.00
49311;BME280;35177;45.900;5.946;2022-09-09T04:59:54;97449.97;;;13.67;100.00
49311;BME280;35177;45.900;5.946;2022-09-09T05:02:19;97440.78;;;13.66;100.00
49311;BME280;35177;45.900;5.946;2022-09-09T05:04:45;97459.00;;;13.64;100.00
49311;BME280;35177;45.900;5.946;2022-09-09T05:07:10;97455.06;;;13.44;100.00
49311;BME280;35177;45.900;5.946;2022-09-09T05:09:36;97456.44;;;13.29;100.00
49311;BME280;35177;45.900;5.946;2022-09-09T05:12:01;97461.00;;;13.33;100.00
49311;BME280;35177;45.900;5.946;2022-09-09T05:14:28;97463.56;;;13.17;100.00
49311;BME280;35177;45.900;5.946;2022-09-09T05:16:55;97463.06;;;13.15;100.00
49311;BME280;35177;45.900;5.946;2022-09-09T05:19:21;97458.34;;;13.07;100.00
49311;BME280;35177;45.900;5.946;2022-09-09T05:21:47;97463.16;;;12.98;100.00
49311;BME280;35177;45.900;5.946;2022-09-09T05:24:13;97467.69;;;13.02;100.00
49311;BME280;35177;45.900;5.946;2022-09-09T05:26:38;97470.78;;;13.10;100.00
49311;BME280;35177;45.900;5.946;2022-09-09T05:29:04;97476.34;;;13.10;100.00
49311;BME280;35177;45.900;5.946;2022-09-09T05:31:30;97470.13;;;13.13;100.00
49311;BME280;35177;45.900;5.946;2022-09-09T05:33:56;97476.16;;;13.15;100.00
49311;BME280;35177;45.900;5.946;2022-09-09T05:36:22;97471.28;;;13.12;100.00
49311;BME280;35177;45.900;5.946;2022-09-09T05:38:49;97475.25;;;13.02;100.00
49311;BME280;35177;45.900;5.946;2022-09-09T05:41:16;97478.53;;;13.04;100.00
49311;BME280;35177;45.900;5.946;2022-09-09T05:43:43;97478.22;;;12.97;100.00
49311;BME280;35177;45.900;5.946;2022-09-09T05:46:21;97483.56;;;13.11;100.00
49311;BME280;35177;45.900;5.946;2022-09-09T05:48:48;97484.88;;;13.13;100.00
49311;BME280;35177;45.900;5.946;2022-09-09T05:51:18;97486.88;;;13.04;100.00
49311;BME280;35177;45.900;5.946;2022-09-09T05:53:45;97493.41;;;13.08;100.00
49311;BME280;35177;45.900;5.946;2022-09-09T05:56:17;97495.84;;;13.10;100.00
49311;BME280;35177;45.900;5.946;2022-09-09T05:58:44;97501.19;;;12.85;100.00
49311;BME280;35177;45.900;5.946;2022-09-09T06:01:12;97505.25;;;12.96;100.00
49311;BME280;35177;45.900;5.946;2022-09-09T06:03:40;97509.47;;;13.11;100.00
49311;BME280;35177;45.900;5.946;2022-09-09T06:06:09;97499.09;;;13.21;100.00
49311;BME280;35177;45.900;5.946;2022-09-09T06:08:36;97508.97;;;13.09;100.00
49311;BME280;35177;45.900;5.946;2022-09-09T06:11:10;97504.81;;;13.24;100.00
49311;BME280;35177;45.900;5.946;2022-09-09T06:13:36;97510.38;;;13.24;100.00
49311;BME280;35177;45.900;5.946;2022-09-09T06:16:04;97513.38;;;13.19;100.00
49311;BME280;35177;45.900;5.946;2022-09-09T06:18:30;97510.03;;;13.26;100.00
49311;BME280;35177;45.900;5.946;2022-09-09T06:21:04;97510.25;;;13.50;100.00
49311;BME280;35177;45.900;5.946;2022-09-09T06:23:30;97514.09;;;13.46;100.00
49311;BME280;35177;45.900;5.946;2022-09-09T06:26:07;97505.09;;;13.40;100.00
49311;BME280;35177;45.900;5.946;2022-09-09T06:28:33;97514.63;;;13.60;100.00
49311;BME280;35177;45.900;5.946;2022-09-09T06:31:07;97512.47;;;13.66;100.00
49311;BME280;35177;45.900;5.946;2022-09-09T06:33:34;97516.75;;;13.63;100.00
49311;BME280;35177;45.900;5.946;2022-09-09T06:36:01;97512.78;;;13.43;100.00
49311;BME280;35177;45.900;5.946;2022-09-09T06:38:28;97514.78;;;13.64;100.00
49311;BME280;35177;45.900;5.946;2022-09-09T06:40:55;97525.41;;;13.71;100.00
49311;BME280;35177;45.900;5.946;2022-09-09T06:43:22;97520.13;;;13.78;100.00
49311;BME280;35177;45.900;5.946;2022-09-09T06:45:59;97526.50;;;13.78;100.00
49311;BME280;35177;45.900;5.946;2022-09-09T06:48:25;97525.34;;;13.79;100.00
49311;BME280;35177;45.900;5.946;2022-09-09T06:51:12;97527.13;;;13.84;100.00
49311;BME280;35177;45.900;5.946;2022-09-09T06:53:40;97532.22;;;13.82;100.00
49311;BME280;35177;45.900;5.946;2022-09-09T06:56:25;97532.03;;;13.87;100.00
49311;BME280;35177;45.900;5.946;2022-09-09T06:58:53;97533.72;;;14.01;100.00
49311;BME280;35177;45.900;5.946;2022-09-09T07:01:22;97531.44;;;14.03;100.00
49311;BME280;35177;45.900;5.946;2022-09-09T07:03:50;97537.56;;;14.17;100.00
49311;BME280;35177;45.900;5.946;2022-09-09T07:06:28;97536.38;;;14.18;100.00
49311;BME280;35177;45.900;5.946;2022-09-09T07:08:55;97539.53;;;14.17;100.00
49311;BME280;35177;45.900;5.946;2022-09-09T07:11:22;97539.38;;;14.13;100.00
49311;BME280;35177;45.900;5.946;2022-09-09T07:13:48;97541.28;;;14.21;100.00
49311;BME280;35177;45.900;5.946;2022-09-09T07:16:19;97541.00;;;14.35;100.00
49311;BME280;35177;45.900;5.946;2022-09-09T07:18:46;97539.94;;;14.61;100.00
49311;BME280;35177;45.900;5.946;2022-09-09T07:21:14;97541.47;;;14.37;100.00
49311;BME280;35177;45.900;5.946;2022-09-09T07:23:41;97538.94;;;14.11;100.00
49311;BME280;35177;45.900;5.946;2022-09-09T07:26:12;97546.00;;;14.29;100.00
49311;BME280;35177;45.900;5.946;2022-09-09T07:28:40;97551.28;;;14.43;100.00
49311;BME280;35177;45.900;5.946;2022-09-09T07:31:10;97545.34;;;14.45;100.00
49311;BME280;35177;45.900;5.946;2022-09-09T07:33:39;97540.59;;;14.45;100.00
49311;BME280;35177;45.900;5.946;2022-09-09T07:36:09;97536.56;;;14.34;100.00
49311;BME280;35177;45.900;5.946;2022-09-09T07:38:42;97535.34;;;14.44;100.00
49311;BME280;35177;45.900;5.946;2022-09-09T07:41:11;97538.19;;;14.77;100.00
49311;BME280;35177;45.900;5.946;2022-09-09T07:43:38;97539.03;;;15.03;100.00
49311;BME280;35177;45.900;5.946;2022-09-09T07:46:05;97551.06;;;15.16;100.00
49311;BME280;35177;45.900;5.946;2022-09-09T07:48:31;97556.69;;;15.28;100.00
49311;BME280;35177;45.900;5.946;2022-09-09T07:51:26;97548.66;;;15.51;100.00
49311;BME280;35177;45.900;5.946;2022-09-09T07:53:55;97550.28;;;15.52;100.00
49311;BME280;35177;45.900;5.946;2022-09-09T07:56:23;97544.69;;;15.77;100.00
49311;BME280;35177;45.900;5.946;2022-09-09T07:58:49;97552.97;;;15.61;100.00
49311;BME280;35177;45.900;5.946;2022-09-09T08:01:25;97550.41;;;15.68;100.00
49311;BME280;35177;45.900;5.946;2022-09-09T08:03:58;97552.72;;;15.91;100.00
49311;BME280;35177;45.900;5.946;2022-09-09T08:06:26;97554.50;;;15.83;100.00
49311;BME280;35177;45.900;5.946;2022-09-09T08:08:52;97551.09;;;15.78;100.00
49311;BME280;35177;45.900;5.946;2022-09-09T08:11:20;97566.25;;;15.77;100.00
49311;BME280;35177;45.900;5.946;2022-09-09T08:13:46;97563.25;;;15.94;100.00
49311;BME280;35177;45.900;5.946;2022-09-09T08:16:18;97563.44;;;16.14;100.00
49311;BME280;35177;45.900;5.946;2022-09-09T08:18:47;97564.25;;;16.14;100.00
49311;BME280;35177;45.900;5.946;2022-09-09T08:21:16;97567.22;;;16.34;100.00
49311;BME280;35177;45.900;5.946;2022-09-09T08:23:44;97558.81;;;16.34;100.00
49311;BME280;35177;45.900;5.946;2022-09-09T08:26:16;97564.84;;;16.48;100.00
49311;BME280;35177;45.900;5.946;2022-09-09T08:28:42;97558.63;;;16.55;100.00
49311;BME280;35177;45.900;5.946;2022-09-09T08:31:14;97562.59;;;16.54;100.00
49311;BME280;35177;45.900;5.946;2022-09-09T08:33:40;97570.84;;;16.63;100.00
49311;BME280;35177;45.900;5.946;2022-09-09T08:36:08;97559.56;;;16.59;100.00
49311;BME280;35177;45.900;5.946;2022-09-09T08:38:34;97559.47;;;16.56;100.00
49311;BME280;35177;45.900;5.946;2022-09-09T08:52:31;97571.00;;;16.95;100.00
49311;BME280;35177;45.900;5.946;2022-09-09T08:57:47;97566.44;;;16.90;100.00
49311;BME280;35177;45.900;5.946;2022-09-09T09:00:14;97579.22;;;16.75;100.00
49311;BME280;35177;45.900;5.946;2022-09-09T09:08:30;97566.69;;;17.13;100.00
49311;BME280;35177;45.900;5.946;2022-09-09T09:10:59;97565.59;;;17.34;100.00
49311;BME280;35177;45.900;5.946;2022-09-09T09:18:51;97566.19;;;17.91;100.00
49311;BME280;35177;45.900;5.946;2022-09-09T09:24:07;97570.41;;;17.65;100.00
49311;BME280;35177;45.900;5.946;2022-09-09T09:26:42;97569.94;;;17.63;100.00
49311;BME280;35177;45.900;5.946;2022-09-09T09:29:14;97567.59;;;17.65;100.00
49311;BME280;35177;45.900;5.946;2022-09-09T09:31:50;97574.41;;;18.16;100.00
49311;BME280;35177;45.900;5.946;2022-09-09T09:34:16;97566.00;;;18.36;100.00
49311;BME280;35177;45.900;5.946;2022-09-09T09:36:53;97568.44;;;19.16;100.00
49311;BME280;35177;45.900;5.946;2022-09-09T09:39:29;97565.38;;;20.21;100.00
49311;BME280;35177;45.900;5.946;2022-09-09T09:41:55;97564.00;;;20.68;100.00
49311;BME280;35177;45.900;5.946;2022-09-09T09:44:28;97565.16;;;21.77;100.00
49311;BME280;35177;45.900;5.946;2022-09-09T09:47:10;97566.66;;;21.63;81.55
49311;BME280;35177;45.900;5.946;2022-09-09T09:49:37;97576.19;;;21.96;83.04
49311;BME280;35177;45.900;5.946;2022-09-09T09:52:04;97570.78;;;21.73;83.11
49311;BME280;35177;45.900;5.946;2022-09-09T09:54:34;97573.97;;;22.24;79.15
49311;BME280;35177;45.900;5.946;2022-09-09T09:57:13;97571.03;;;22.83;80.96
49311;BME280;35177;45.900;5.946;2022-09-09T09:59:40;97565.34;;;22.72;74.29
49311;BME280;35177;45.900;5.946;2022-09-09T10:02:22;97567.09;;;23.02;77.23
49311;BME280;35177;45.900;5.946;2022-09-09T10:07:28;97571.25;;;22.38;98.19
49311;BME280;35177;45.900;5.946;2022-09-09T10:09:57;97568.22;;;22.83;77.20
49311;BME280;35177;45.900;5.946;2022-09-09T10:17:38;97564.25;;;23.02;63.88
49311;BME280;35177;45.900;5.946;2022-09-09T10:20:37;97555.72;;;22.88;66.96
49311;BME280;35177;45.900;5.946;2022-09-09T10:28:24;97552.47;;;22.89;60.73
49311;BME280;35177;45.900;5.946;2022-09-09T10:31:34;97553.97;;;22.54;62.61
49311;BME280;35177;45.900;5.946;2022-09-09T10:35:12;97552.50;;;22.97;61.30
49311;BME280;35177;45.900;5.946;2022-09-09T10:42:42;97562.53;;;22.76;62.16
49311;BME280;35177;45.900;5.946;2022-09-09T10:45:21;97559.00;;;23.15;58.91
49311;BME280;35177;45.900;5.946;2022-09-09T10:50:43;97554.81;;;22.66;70.94
49311;BME280;35177;45.900;5.946;2022-09-09T10:55:53;97551.81;;;23.72;70.04
49311;BME280;35177;45.900;5.946;2022-09-09T10:58:41;97548.59;;;23.63;68.10
49311;BME280;35177;45.900;5.946;2022-09-09T11:01:17;97545.75;;;23.45;60.13
49311;BME280;35177;45.900;5.946;2022-09-09T11:03:51;97534.81;;;23.32;71.18
49311;BME280;35177;45.900;5.946;2022-09-09T11:06:21;97537.69;;;23.61;76.75
49311;BME280;35177;45.900;5.946;2022-09-09T11:08:51;97537.25;;;23.95;62.62
49311;BME280;35177;45.900;5.946;2022-09-09T11:11:35;97542.88;;;24.38;60.89
49311;BME280;35177;45.900;5.946;2022-09-09T11:14:28;97544.94;;;23.73;62.67
49311;BME280;35177;45.900;5.946;2022-09-09T11:17:02;97541.28;;;23.47;61.62
49311;BME280;35177;45.900;5.946;2022-09-09T11:19:41;97539.69;;;23.57;63.72
49311;BME280;35177;45.900;5.946;2022-09-09T11:44:43;97538.13;;;22.42;66.86
49311;BME280;35177;45.900;5.946;2022-09-09T11:47:27;97546.38;;;22.03;67.87
49311;BME280;35177;45.900;5.946;2022-09-09T11:50:09;97532.75;;;22.23;64.19
49311;BME280;35177;45.900;5.946;2022-09-09T11:55:24;97541.47;;;21.47;69.20
49311;BME280;35177;45.900;5.946;2022-09-09T11:57:59;97550.66;;;21.41;69.96
49311;BME280;35177;45.900;5.946;2022-09-09T12:00:48;97550.28;;;21.01;74.06
49311;BME280;35177;45.900;5.946;2022-09-09T12:03:41;97551.09;;;21.01;75.25
49311;BME280;35177;45.900;5.946;2022-09-09T12:06:29;97550.56;;;20.89;74.33
49311;BME280;35177;45.900;5.946;2022-09-09T12:09:15;97550.78;;;20.73;74.46
49311;BME280;35177;45.900;5.946;2022-09-09T12:11:43;97551.31;;;20.85;84.59
49311;BME280;35177;45.900;5.946;2022-09-09T12:14:19;97547.69;;;20.85;82.60
49311;BME280;35177;45.900;5.946;2022-09-09T12:16:46;97561.72;;;20.78;82.69
49311;BME280;35177;45.900;5.946;2022-09-09T12:19:19;97549.81;;;20.95;74.49
49311;BME280;35177;45.900;5.946;2022-09-09T12:22:14;97547.94;;;21.07;80.60
49311;BME280;35177;45.900;5.946;2022-09-09T12:24:49;97549.84;;;20.99;85.18
49311;BME280;35177;45.900;5.946;2022-09-09T12:27:26;97553.19;;;20.74;78.71
49311;BME280;35177;45.900;5.946;2022-09-09T12:32:25;97548.88;;;20.84;82.09
49311;BME280;35177;45.900;5.946;2022-09-09T12:34:55;97543.16;;;21.56;80.69
49311;BME280;35177;45.900;5.946;2022-09-09T12:39:59;97540.41;;;23.07;67.31
49311;BME280;35177;45.900;5.946;2022-09-09T12:42:26;97541.81;;;22.54;73.86
49311;BME280;35177;45.900;5.946;2022-09-09T12:44:54;97537.81;;;22.58;79.32
49311;BME280;35177;45.900;5.946;2022-09-09T12:47:25;97534.28;;;22.09;81.34
49311;BME280;35177;45.900;5.946;2022-09-09T12:49:52;97534.22;;;21.98;73.30
49311;BME280;35177;45.900;5.946;2022-09-09T12:54:50;97519.03;;;23.35;65.70
49311;BME280;35177;45.900;5.946;2022-09-09T12:57:19;97532.38;;;23.20;75.81
49311;BME280;35177;45.900;5.946;2022-09-09T12:59:47;97523.72;;;22.73;69.73
49311;BME280;35177;45.900;5.946;2022-09-09T13:02:25;97520.56;;;22.96;75.84
49311;BME280;35177;45.900;5.946;2022-09-09T13:04:51;97521.97;;;22.46;67.76
49311;BME280;35177;45.900;5.946;2022-09-09T13:07:18;97510.66;;;22.39;69.13
49311;BME280;35177;45.900;5.946;2022-09-09T13:09:45;97510.91;;;23.19;71.93
49311;BME280;35177;45.900;5.946;2022-09-09T13:12:21;97500.03;;;23.32;62.77
49311;BME280;35177;45.900;5.946;2022-09-09T13:14:50;97495.97;;;23.36;63.73
49311;BME280;35177;45.900;5.946;2022-09-09T13:17:23;97497.59;;;23.63;66.66
49311;BME280;35177;45.900;5.946;2022-09-09T13:19:50;97502.75;;;22.95;68.11
49311;BME280;35177;45.900;5.946;2022-09-09T13:22:33;97508.03;;;23.11;70.64
49311;BME280;35177;45.900;5.946;2022-09-09T13:25:22;97501.63;;;23.62;69.31
49311;BME280;35177;45.900;5.946;2022-09-09T13:27:53;97504.06;;;23.63;71.17
49311;BME280;35177;45.900;5.946;2022-09-09T13:30:34;97503.47;;;22.63;70.79
49311;BME280;35177;45.900;5.946;2022-09-09T13:35:35;97488.03;;;22.39;66.49
49311;BME280;35177;45.900;5.946;2022-09-09T13:38:14;97497.88;;;21.97;64.67
49311;BME280;35177;45.900;5.946;2022-09-09T13:40:40;97496.94;;;21.78;65.40
49311;BME280;35177;45.900;5.946;2022-09-09T13:43:21;97492.78;;;21.61;63.33
49311;BME280;35177;45.900;5.946;2022-09-09T13:46:35;97494.91;;;21.75;58.34
49311;BME280;35177;45.900;5.946;2022-09-09T13:49:18;97500.06;;;21.62;58.89
49311;BME280;35177;45.900;5.946;2022-09-09T13:51:47;97490.06;;;22.42;63.48
49311;BME280;35177;45.900;5.946;2022-09-09T13:54:15;97492.50;;;22.48;55.52
49311;BME280;35177;45.900;5.946;2022-09-09T13:56:41;97494.28;;;22.04;57.07
49311;BME280;35177;45.900;5.946;2022-09-09T13:59:18;97494.56;;;21.80;61.18
49311;BME280;35177;45.900;5.946;2022-09-09T14:01:49;97487.94;;;21.58;65.81
49311;BME280;35177;45.900;5.946;2022-09-09T14:04:16;97490.22;;;22.01;59.08
49311;BME280;35177;45.900;5.946;2022-09-09T14:06:42;97489.59;;;22.33;60.52
49311;BME280;35177;45.900;5.946;2022-09-09T14:09:12;97487.25;;;22.46;57.61
49311;BME280;35177;45.900;5.946;2022-09-09T14:11:38;97481.22;;;22.55;57.05
49311;BME280;35177;45.900;5.946;2022-09-09T14:14:03;97491.06;;;22.97;58.20
49311;BME280;35177;45.900;5.946;2022-09-09T14:16:29;97487.81;;;23.02;59.49
49311;BME280;35177;45.900;5.946;2022-09-09T14:18:55;97481.00;;;23.39;60.87
49311;BME280;35177;45.900;5.946;2022-09-09T14:21:25;97482.22;;;23.42;56.96
49311;BME280;35177;45.900;5.946;2022-09-09T14:23:51;97474.94;;;23.48;55.52
49311;BME280;35177;45.900;5.946;2022-09-09T14:26:18;97487.88;;;23.17;59.76
49311;BME280;35177;45.900;5.946;2022-09-09T14:28:46;97482.97;;;23.06;60.76
49311;BME280;35177;45.900;5.946;2022-09-09T14:31:12;97474.44;;;22.95;64.79
49311;BME280;35177;45.900;5.946;2022-09-09T14:33:39;97475.19;;;22.67;53.84
49311;BME280;35177;45.900;5.946;2022-09-09T14:36:05;97473.00;;;22.28;68.23
49311;BME280;35177;45.900;5.946;2022-09-09T14:38:33;97485.41;;;22.97;64.76
49311;BME280;35177;45.900;5.946;2022-09-09T14:41:00;97480.94;;;23.00;52.30
49311;BME280;35177;45.900;5.946;2022-09-09T14:43:26;97486.13;;;22.72;53.89
49311;BME280;35177;45.900;5.946;2022-09-09T14:45:52;97491.31;;;22.52;53.44
49311;BME280;35177;45.900;5.946;2022-09-09T14:48:17;97491.16;;;22.27;60.08
49311;BME280;35177;45.900;5.946;2022-09-09T14:50:43;97490.88;;;22.39;58.66
49311;BME280;35177;45.900;5.946;2022-09-09T14:53:09;97490.72;;;22.18;58.53
49311;BME280;35177;45.900;5.946;2022-09-09T14:55:35;97487.34;;;21.90;55.53
49311;BME280;35177;45.900;5.946;2022-09-09T14:58:01;97500.69;;;21.93;63.63
49311;BME280;35177;45.900;5.946;2022-09-09T15:00:26;97496.13;;;21.74;64.26
49311;BME280;35177;45.900;5.946;2022-09-09T15:02:55;97499.94;;;21.51;61.16
49311;BME280;35177;45.900;5.946;2022-09-09T15:05:21;97498.41;;;21.58;60.19
49311;BME280;35177;45.900;5.946;2022-09-09T15:07:47;97498.31;;;21.50;56.75
49311;BME280;35177;45.900;5.946;2022-09-09T15:10:15;97499.47;;;21.42;56.60
49311;BME280;35177;45.900;5.946;2022-09-09T15:12:42;97497.91;;;21.48;58.51
49311;BME280;35177;45.900;5.946;2022-09-09T15:15:09;97493.38;;;21.37;61.39
49311;BME280;35177;45.900;5.946;2022-09-09T15:17:35;97492.97;;;21.38;67.74